createdAt,value
2019-01-23T00:00:57.358Z,17.67
2019-01-23T00:03:24.100Z,14.50
2019-01-23T00:05:51.045Z,12.33
2019-01-23T00:08:17.906Z,16.83
2019-01-23T00:10:44.736Z,17.53
2019-01-23T00:13:11.489Z,18.57
2019-01-23T00:15:40.161Z,22.37
2019-01-23T00:18:06.959Z,14.83
2019-01-23T00:20:33.672Z,15.50
2019-01-23T00:23:00.514Z,14.47
2019-01-23T00:25:27.313Z,12.80
2019-01-23T00:27:56.090Z,13.73
2019-01-23T00:30:24.702Z,12.63
2019-01-23T00:32:53.211Z,15.93
2019-01-23T00:35:19.986Z,20.33
2019-01-23T00:37:47.078Z,14.17
2019-01-23T00:40:13.923Z,15.23
2019-01-23T00:42:41.176Z,14.67
2019-01-23T00:45:08.148Z,15.37
2019-01-23T00:47:35.170Z,12.63
2019-01-23T00:50:02.021Z,12.77
2019-01-23T00:52:28.862Z,16.63
2019-01-23T00:54:55.699Z,14.20
2019-01-23T00:57:22.346Z,13.83
2019-01-23T00:59:49.232Z,18.00
2019-01-23T01:02:15.956Z,12.63
2019-01-23T01:04:42.876Z,15.87
2019-01-23T01:07:10.020Z,13.03
2019-01-23T01:09:36.865Z,11.37
2019-01-23T01:12:03.711Z,13.80
2019-01-23T01:14:30.577Z,13.47
2019-01-23T01:16:57.394Z,16.50
2019-01-23T01:19:24.238Z,16.60
2019-01-23T01:21:51.058Z,13.37
2019-01-23T01:24:17.862Z,17.03
2019-01-23T01:26:45.082Z,15.70
2019-01-23T01:29:12.430Z,17.40
2019-01-23T01:31:39.479Z,14.73
2019-01-23T01:34:06.223Z,13.97
2019-01-23T01:36:32.981Z,13.10
2019-01-23T01:38:59.808Z,17.43
2019-01-23T01:41:26.549Z,16.17
2019-01-23T01:43:53.291Z,17.57
2019-01-23T01:46:20.189Z,13.40
2019-01-23T01:48:46.959Z,15.90
2019-01-23T01:51:13.818Z,21.97
2019-01-23T01:53:40.765Z,13.77
2019-01-23T01:56:07.713Z,17.37
2019-01-23T01:58:34.659Z,14.17
2019-01-23T02:01:01.501Z,17.67
2019-01-23T02:03:28.449Z,15.40
2019-01-23T02:05:56.325Z,18.60
2019-01-23T02:08:23.389Z,13.43
2019-01-23T02:10:50.206Z,11.87
2019-01-23T02:13:16.965Z,14.87
2019-01-23T02:15:43.792Z,12.83
2019-01-23T02:18:10.459Z,14.33
2019-01-23T02:20:39.117Z,12.47
2019-01-23T02:23:05.857Z,15.57
2019-01-23T02:25:32.703Z,11.67
2019-01-23T02:28:01.472Z,14.53
2019-01-23T02:30:28.382Z,17.33
2019-01-23T02:32:55.177Z,14.43
2019-01-23T02:35:22.020Z,15.07
2019-01-23T02:37:48.870Z,12.37
2019-01-23T02:40:15.544Z,12.93
2019-01-23T02:42:42.563Z,15.30
2019-01-23T02:45:10.425Z,16.37
2019-01-23T02:47:38.226Z,12.47
2019-01-23T02:50:06.103Z,15.20
2019-01-23T02:52:32.905Z,14.73
2019-01-23T02:54:59.590Z,18.53
2019-01-23T02:57:28.154Z,15.17
2019-01-23T02:59:54.975Z,12.13
2019-01-23T03:02:21.730Z,13.77
2019-01-23T03:04:48.654Z,14.83
2019-01-23T03:07:15.495Z,14.80
2019-01-23T03:09:42.618Z,16.87
2019-01-23T03:12:09.493Z,12.90
2019-01-23T03:14:37.510Z,12.93
2019-01-23T03:17:04.309Z,13.77
2019-01-23T03:19:32.377Z,14.47
2019-01-23T03:21:59.676Z,13.57
2019-01-23T03:24:27.749Z,14.73
2019-01-23T03:26:54.541Z,14.27
2019-01-23T03:29:24.672Z,14.83
2019-01-23T03:31:51.516Z,11.80
2019-01-23T03:34:19.346Z,10.63
2019-01-23T03:36:46.069Z,11.50
2019-01-23T03:39:12.963Z,11.63
2019-01-23T03:41:39.904Z,13.07
2019-01-23T03:44:07.093Z,10.37
2019-01-23T03:46:35.237Z,11.87
2019-01-23T03:49:03.684Z,12.53
2019-01-23T03:51:30.968Z,15.63
2019-01-23T03:53:57.919Z,15.00
2019-01-23T03:56:25.134Z,15.90
2019-01-23T03:58:52.012Z,15.20
2019-01-23T04:01:18.799Z,13.17
2019-01-23T04:03:45.835Z,11.80
2019-01-23T04:06:14.281Z,10.70
2019-01-23T04:08:41.227Z,13.60
2019-01-23T04:11:07.998Z,13.40
2019-01-23T04:13:34.806Z,14.13
2019-01-23T04:16:01.486Z,15.60
2019-01-23T04:18:28.120Z,14.20
2019-01-23T04:20:55.250Z,12.57
2019-01-23T04:23:21.976Z,14.27
2019-01-23T04:25:49.449Z,10.63
2019-01-23T04:28:16.220Z,11.83
2019-01-23T04:30:43.064Z,15.07
2019-01-23T04:33:09.950Z,10.10
2019-01-23T04:35:36.530Z,11.60
2019-01-23T04:38:03.259Z,14.77
2019-01-23T04:40:29.944Z,12.60
2019-01-23T04:42:56.631Z,11.83
2019-01-23T04:45:23.527Z,18.57
2019-01-23T04:47:50.197Z,13.57
2019-01-23T04:50:16.843Z,11.23
2019-01-23T04:53:09.118Z,14.40
2019-01-23T04:55:37.683Z,12.83
2019-01-23T04:58:04.265Z,13.67
2019-01-23T05:00:31.684Z,12.67
2019-01-23T05:02:58.631Z,12.57
2019-01-23T05:05:25.694Z,13.70
2019-01-23T05:07:54.154Z,12.83
2019-01-23T05:10:22.658Z,13.37
2019-01-23T05:12:49.272Z,15.47
2019-01-23T05:15:16.109Z,14.97
2019-01-23T05:17:43.188Z,11.80
2019-01-23T05:20:11.605Z,12.17
2019-01-23T05:22:40.074Z,15.27
2019-01-23T05:25:08.214Z,12.67
2019-01-23T05:27:35.242Z,15.23
2019-01-23T05:30:01.828Z,13.63
2019-01-23T05:32:28.596Z,13.43
2019-01-23T05:34:55.595Z,12.63
2019-01-23T05:37:22.301Z,12.77
2019-01-23T05:39:49.125Z,12.03
2019-01-23T05:42:15.872Z,12.33
2019-01-23T05:44:42.601Z,13.37
2019-01-23T05:47:11.010Z,15.33
2019-01-23T05:49:38.889Z,13.27
2019-01-23T05:52:09.109Z,16.77
2019-01-23T05:54:35.581Z,12.87
2019-01-23T05:57:04.131Z,11.43
2019-01-23T05:59:30.800Z,14.77
2019-01-23T06:01:57.429Z,13.27
2019-01-23T06:04:24.170Z,15.87
2019-01-23T06:06:53.032Z,13.67
2019-01-23T06:09:20.121Z,12.80
2019-01-23T06:11:46.807Z,14.60
2019-01-23T06:14:13.443Z,10.87
2019-01-23T06:16:40.207Z,18.27
2019-01-23T06:19:07.153Z,13.00
2019-01-23T06:21:33.919Z,12.73
2019-01-23T06:24:00.631Z,10.70
2019-01-23T06:26:27.375Z,15.57
2019-01-23T06:28:54.139Z,12.87
2019-01-23T06:31:20.970Z,12.57
2019-01-23T06:33:47.688Z,11.77
2019-01-23T06:36:14.847Z,12.17
2019-01-23T06:38:41.904Z,10.60
2019-01-23T06:41:08.658Z,11.00
2019-01-23T06:43:35.383Z,13.13
2019-01-23T06:46:01.994Z,13.80
2019-01-23T06:48:30.195Z,12.77
2019-01-23T06:50:56.883Z,9.10
2019-01-23T06:53:23.649Z,11.13
2019-01-23T06:55:50.441Z,11.47
2019-01-23T06:58:17.377Z,14.00
2019-01-23T07:00:44.031Z,13.00
2019-01-23T07:03:10.757Z,14.27
2019-01-23T07:05:37.578Z,11.93
2019-01-23T07:08:04.745Z,12.07
2019-01-23T07:10:32.477Z,12.27
2019-01-23T07:12:59.111Z,12.37
2019-01-23T07:15:26.339Z,13.23
2019-01-23T07:17:52.990Z,10.47
2019-01-23T07:20:19.640Z,11.27
2019-01-23T07:22:46.254Z,11.23
2019-01-23T07:25:14.174Z,13.40
2019-01-23T07:27:40.819Z,14.47
2019-01-23T07:30:07.555Z,15.50
2019-01-23T07:32:35.221Z,12.33
2019-01-23T07:35:02.049Z,11.40
2019-01-23T07:37:28.774Z,12.23
2019-01-23T07:39:55.532Z,11.67
2019-01-23T07:42:23.047Z,11.73
2019-01-23T07:44:50.588Z,13.43
2019-01-23T07:47:17.326Z,14.30
2019-01-23T07:49:43.968Z,15.13
2019-01-23T07:52:10.613Z,13.90
2019-01-23T07:54:37.422Z,14.67
2019-01-23T07:57:04.191Z,13.23
2019-01-23T07:59:31.254Z,11.80
2019-01-23T08:01:59.158Z,15.20
2019-01-23T08:04:26.403Z,12.17
2019-01-23T08:06:53.177Z,9.43
2019-01-23T08:09:19.946Z,12.30
2019-01-23T08:11:47.182Z,11.30
2019-01-23T08:14:14.149Z,12.80
2019-01-23T08:16:40.906Z,12.17
2019-01-23T08:19:07.708Z,14.10
2019-01-23T08:21:34.678Z,11.73
2019-01-23T08:24:01.446Z,14.47
2019-01-23T08:26:28.255Z,14.70
2019-01-23T08:28:54.990Z,10.10
2019-01-23T08:31:22.036Z,14.27
2019-01-23T08:33:48.886Z,13.07
2019-01-23T08:36:15.715Z,11.53
2019-01-23T08:38:43.255Z,15.07
2019-01-23T08:41:09.921Z,13.30
2019-01-23T08:43:37.307Z,13.53
2019-01-23T08:46:04.544Z,12.23
2019-01-23T08:48:31.337Z,15.97
2019-01-23T08:50:57.944Z,12.93
2019-01-23T08:53:24.684Z,16.33
2019-01-23T08:55:53.799Z,15.93
2019-01-23T08:58:19.952Z,14.60
2019-01-23T09:00:47.246Z,16.03
2019-01-23T09:03:13.945Z,15.17
2019-01-23T09:05:41.023Z,12.97
2019-01-23T09:08:08.179Z,16.87
2019-01-23T09:10:34.863Z,12.57
2019-01-23T09:13:02.105Z,14.27
2019-01-23T09:15:29.321Z,16.50
2019-01-23T09:17:57.773Z,13.83
2019-01-23T09:20:24.987Z,12.20
2019-01-23T09:22:51.848Z,11.93
2019-01-23T09:25:18.530Z,14.27
2019-01-23T09:27:45.260Z,14.50
2019-01-23T09:30:11.964Z,19.00
2019-01-23T09:32:38.977Z,12.20
2019-01-23T09:35:05.851Z,10.30
2019-01-23T09:37:32.552Z,16.17
2019-01-23T09:39:59.300Z,12.87
2019-01-23T09:42:26.094Z,12.57
2019-01-23T09:44:52.864Z,15.07
2019-01-23T09:47:20.746Z,14.90
2019-01-23T09:49:47.393Z,12.20
2019-01-23T09:52:14.210Z,13.37
2019-01-23T09:54:40.950Z,12.43
2019-01-23T09:57:08.150Z,14.77
2019-01-23T09:59:35.056Z,13.70
2019-01-23T10:02:03.138Z,16.13
2019-01-23T10:04:30.190Z,13.73
2019-01-23T10:06:56.926Z,15.13
2019-01-23T10:09:23.815Z,14.30
2019-01-23T10:11:51.555Z,11.87
2019-01-23T10:14:18.519Z,14.67
2019-01-23T10:16:45.206Z,15.73
2019-01-23T10:19:12.124Z,12.30
2019-01-23T10:21:38.849Z,13.07
2019-01-23T10:24:05.543Z,12.67
2019-01-23T10:26:34.082Z,12.90
2019-01-23T10:29:00.771Z,15.03
2019-01-23T10:31:27.393Z,17.17
2019-01-23T10:33:54.038Z,13.33
2019-01-23T10:36:20.648Z,15.13
2019-01-23T10:38:47.251Z,13.67
2019-01-23T10:41:13.902Z,14.67
2019-01-23T10:43:40.905Z,10.47
2019-01-23T10:46:07.568Z,15.23
2019-01-23T10:48:37.993Z,13.40
2019-01-23T10:51:02.635Z,13.33
2019-01-23T10:53:31.059Z,16.93
2019-01-23T10:55:58.099Z,15.87
2019-01-23T10:58:27.071Z,14.30
2019-01-23T11:00:53.952Z,16.97
2019-01-23T11:03:21.704Z,14.37
2019-01-23T11:05:48.266Z,16.13
2019-01-23T11:08:16.243Z,12.50
2019-01-23T11:10:42.963Z,17.17
2019-01-23T11:13:10.092Z,18.93
2019-01-23T11:15:36.837Z,16.83
2019-01-23T11:18:03.779Z,15.30
2019-01-23T11:20:30.844Z,16.27
2019-01-23T11:22:57.673Z,18.60
2019-01-23T11:25:24.573Z,13.67
2019-01-23T11:27:51.389Z,17.67
2019-01-23T11:30:18.205Z,13.97
2019-01-23T11:32:46.013Z,15.80
2019-01-23T11:35:12.903Z,15.30
2019-01-23T11:37:39.628Z,16.33
2019-01-23T11:40:06.544Z,15.90
2019-01-23T11:42:34.446Z,14.97
2019-01-23T11:45:02.265Z,18.93
2019-01-23T11:47:29.029Z,16.90
2019-01-23T11:49:55.826Z,16.33
2019-01-23T11:52:22.462Z,17.43
2019-01-23T11:54:49.230Z,15.57
2019-01-23T11:57:16.043Z,16.23
2019-01-23T11:59:42.784Z,20.27
2019-01-23T12:02:09.422Z,22.20
2019-01-23T12:04:36.706Z,13.80
2019-01-23T12:07:03.940Z,16.97
2019-01-23T12:09:30.978Z,20.00
2019-01-23T12:11:57.626Z,20.60
2019-01-23T12:14:24.322Z,20.83
2019-01-23T12:16:51.124Z,20.57
2019-01-23T12:19:17.752Z,16.73
2019-01-23T12:21:45.950Z,18.67
2019-01-23T12:24:14.518Z,18.07
2019-01-23T12:26:41.233Z,18.47
2019-01-23T12:29:08.006Z,16.97
2019-01-23T12:31:35.361Z,20.23
2019-01-23T12:34:03.477Z,21.17
2019-01-23T12:36:30.556Z,20.83
2019-01-23T12:38:57.091Z,17.07
2019-01-23T12:41:23.800Z,20.30
2019-01-23T12:43:50.594Z,19.17
2019-01-23T12:46:17.764Z,19.67
2019-01-23T12:48:44.681Z,20.03
2019-01-23T12:51:11.419Z,23.83
2019-01-23T12:53:38.483Z,18.03
2019-01-23T12:56:05.195Z,18.33
2019-01-23T12:58:31.886Z,19.50
2019-01-23T13:00:58.812Z,24.13
2019-01-23T13:03:26.888Z,18.87
2019-01-23T13:05:53.642Z,21.93
2019-01-23T13:08:20.368Z,21.23
2019-01-23T13:10:47.419Z,20.57
2019-01-23T13:13:14.150Z,22.07
2019-01-23T13:15:42.683Z,20.43
2019-01-23T13:18:09.300Z,20.77
2019-01-23T13:20:36.097Z,19.00
2019-01-23T13:23:03.041Z,22.17
2019-01-23T13:25:29.920Z,18.97
2019-01-23T13:27:57.308Z,24.73
2019-01-23T13:30:26.254Z,23.63
2019-01-23T13:32:53.185Z,24.03
2019-01-23T13:35:20.257Z,22.30
2019-01-23T13:40:27.472Z,22.17
2019-01-23T13:42:55.264Z,23.43
2019-01-23T13:45:22.581Z,23.73
2019-01-23T13:47:49.707Z,23.63
2019-01-23T13:50:16.249Z,24.97
2019-01-23T13:52:43.441Z,22.17
2019-01-23T13:55:10.099Z,21.80
2019-01-23T13:57:37.489Z,22.23
2019-01-23T14:00:04.214Z,25.00
2019-01-23T14:02:31.163Z,27.13
2019-01-23T14:04:57.947Z,25.17
2019-01-23T14:07:27.534Z,25.30
2019-01-23T14:09:54.325Z,24.47
2019-01-23T14:12:21.041Z,22.53
2019-01-23T14:14:48.763Z,27.87
2019-01-23T14:17:15.517Z,28.40
2019-01-23T14:19:42.275Z,25.23
2019-01-23T14:22:09.151Z,21.30
2019-01-23T14:24:35.903Z,23.60
2019-01-23T14:27:02.634Z,21.50
2019-01-23T14:29:31.274Z,23.37
2019-01-23T14:32:03.337Z,27.00
2019-01-23T14:34:26.788Z,26.50
2019-01-23T14:36:54.731Z,25.97
2019-01-23T14:39:21.642Z,26.17
2019-01-23T14:41:48.356Z,23.60
2019-01-23T14:44:15.171Z,26.97
2019-01-23T14:46:42.258Z,27.23
2019-01-23T14:49:10.800Z,21.20
2019-01-23T14:51:37.265Z,23.40
2019-01-23T14:54:04.408Z,30.37
2019-01-23T14:56:31.075Z,23.63
2019-01-23T14:58:58.137Z,26.80
2019-01-23T15:01:26.328Z,25.30
2019-01-23T15:03:52.938Z,25.47
2019-01-23T15:06:20.069Z,22.87
2019-01-23T15:08:47.006Z,26.90
2019-01-23T15:11:13.899Z,23.07
2019-01-23T15:13:40.807Z,25.93
2019-01-23T15:16:07.522Z,29.50
2019-01-23T15:18:34.169Z,27.10
2019-01-23T15:21:02.880Z,27.30
2019-01-23T15:23:29.711Z,29.57
2019-01-23T15:25:56.654Z,23.73
2019-01-23T15:28:23.289Z,27.90
2019-01-23T15:30:50.074Z,30.63
2019-01-23T15:33:17.379Z,28.60
2019-01-23T15:35:45.688Z,31.20
2019-01-23T15:38:12.325Z,27.03
2019-01-23T15:40:39.233Z,26.53
2019-01-23T15:43:05.936Z,24.70
2019-01-23T15:45:32.640Z,26.20
2019-01-23T15:47:59.365Z,30.03
2019-01-23T15:50:28.010Z,26.40
2019-01-23T15:52:54.810Z,26.43
2019-01-23T15:55:21.976Z,23.80
2019-01-23T15:57:51.318Z,26.20
2019-01-23T16:00:19.949Z,30.30
2019-01-23T16:02:46.883Z,22.37
2019-01-23T16:05:13.842Z,24.77
2019-01-23T16:07:41.043Z,25.40
2019-01-23T16:10:07.774Z,24.77
2019-01-23T16:12:34.518Z,25.37
2019-01-23T16:15:01.406Z,25.57
2019-01-23T16:17:28.218Z,27.13
2019-01-23T16:19:54.953Z,22.30
2019-01-23T16:22:21.849Z,27.17
2019-01-23T16:24:48.655Z,25.80
2019-01-23T16:29:55.534Z,25.20
2019-01-23T16:32:23.361Z,26.33
2019-01-23T16:34:50.409Z,26.33
2019-01-23T16:37:17.231Z,23.13
2019-01-23T16:39:43.905Z,23.13
2019-01-23T16:42:10.923Z,20.93
2019-01-23T16:44:37.786Z,28.30
2019-01-23T16:47:05.052Z,25.37
2019-01-23T16:49:31.863Z,22.17
2019-01-23T16:51:58.569Z,21.53
2019-01-23T16:54:25.885Z,23.70
2019-01-23T16:56:53.875Z,26.60
2019-01-23T16:59:21.030Z,26.63
2019-01-23T17:01:47.687Z,23.40
2019-01-23T17:04:14.385Z,23.93
2019-01-23T17:06:41.319Z,23.83
2019-01-23T17:09:08.117Z,24.70
2019-01-23T17:11:34.897Z,22.23
2019-01-23T17:14:03.369Z,25.50
2019-01-23T17:16:29.966Z,24.60
2019-01-23T17:18:56.995Z,21.73
2019-01-23T17:21:25.440Z,26.03
2019-01-23T17:23:52.395Z,22.83
2019-01-23T17:26:19.243Z,23.60
2019-01-23T17:28:46.149Z,22.90
2019-01-23T17:31:12.991Z,21.20
2019-01-23T17:33:41.034Z,22.70
2019-01-23T17:36:07.769Z,21.40
2019-01-23T17:38:35.886Z,25.67
2019-01-23T17:41:02.502Z,22.93
2019-01-23T17:43:30.464Z,23.10
2019-01-23T17:45:57.195Z,26.00
2019-01-23T17:48:24.521Z,24.03
2019-01-23T17:50:52.299Z,21.43
2019-01-23T17:53:19.326Z,22.67
2019-01-23T17:55:46.998Z,21.40
2019-01-23T17:58:13.737Z,24.00
2019-01-23T18:00:46.337Z,22.07
2019-01-23T18:03:13.112Z,19.37
2019-01-23T18:05:40.897Z,24.63
2019-01-23T18:08:07.715Z,26.87
2019-01-23T18:10:34.474Z,21.03
2019-01-23T18:13:01.277Z,20.80
2019-01-23T18:15:28.034Z,18.50
2019-01-23T18:17:54.997Z,19.77
2019-01-23T18:20:21.671Z,20.03
2019-01-23T18:22:48.732Z,21.33
2019-01-23T18:25:15.572Z,22.90
2019-01-23T18:27:42.310Z,16.33
2019-01-23T18:30:09.256Z,20.77
2019-01-23T18:32:35.808Z,21.23
2019-01-23T18:35:04.649Z,18.53
2019-01-23T18:37:32.415Z,18.97
2019-01-23T18:40:01.650Z,16.40
2019-01-23T18:42:28.495Z,22.33
2019-01-23T18:44:55.179Z,21.60
2019-01-23T18:47:25.119Z,17.93
2019-01-23T18:49:52.856Z,20.93
2019-01-23T18:52:19.620Z,17.00
2019-01-23T18:54:47.854Z,18.63
2019-01-23T18:57:14.750Z,25.73
2019-01-23T18:59:41.661Z,22.60
2019-01-23T19:02:08.373Z,18.90
2019-01-23T19:04:35.312Z,19.57
2019-01-23T19:07:02.621Z,21.97
2019-01-23T19:09:29.645Z,21.77
2019-01-23T19:11:56.396Z,20.47
2019-01-23T19:14:24.768Z,15.87
2019-01-23T19:16:51.473Z,22.13
2019-01-23T19:19:18.220Z,21.47
2019-01-23T19:21:44.950Z,24.70
2019-01-23T19:24:11.611Z,22.17
2019-01-23T19:26:38.253Z,23.13
2019-01-23T19:29:06.336Z,23.87
2019-01-23T19:31:33.147Z,21.70
2019-01-23T19:34:00.633Z,26.47
2019-01-23T19:36:27.554Z,23.67
2019-01-23T19:38:54.391Z,19.70
2019-01-23T19:41:21.221Z,24.20
2019-01-23T19:43:47.986Z,23.53
2019-01-23T19:46:14.857Z,24.03
2019-01-23T19:48:43.358Z,24.30
2019-01-23T19:51:10.120Z,23.37
2019-01-23T19:53:38.394Z,21.30
2019-01-23T19:56:07.223Z,22.00
2019-01-23T19:58:33.792Z,21.57
2019-01-23T20:01:01.006Z,26.00
2019-01-23T20:03:27.820Z,22.07
2019-01-23T20:05:54.817Z,22.70
2019-01-23T20:08:21.525Z,22.07
2019-01-23T20:10:48.368Z,23.03
2019-01-23T20:13:15.217Z,21.50
2019-01-23T20:15:41.963Z,24.30
2019-01-23T20:18:08.695Z,22.33
2019-01-23T20:20:35.322Z,23.17
2019-01-23T20:23:03.236Z,22.13
2019-01-23T20:25:30.505Z,19.30
2019-01-23T20:27:57.520Z,19.33
2019-01-23T20:30:27.825Z,25.67
2019-01-23T20:32:54.561Z,24.33
2019-01-23T20:35:23.016Z,21.97
2019-01-23T20:37:49.647Z,21.80
2019-01-23T20:40:17.383Z,22.47
2019-01-23T20:43:03.135Z,21.03
2019-01-23T20:45:30.344Z,21.30
2019-01-23T20:47:57.153Z,24.87
2019-01-23T20:50:24.188Z,24.90
2019-01-23T20:52:51.142Z,21.83
2019-01-23T20:55:19.832Z,23.80
2019-01-23T20:57:47.768Z,22.67
2019-01-23T21:00:14.387Z,19.03
2019-01-23T21:02:41.304Z,21.73
2019-01-23T21:05:08.430Z,20.80
2019-01-23T21:07:36.453Z,21.13
2019-01-23T21:10:04.368Z,21.10
2019-01-23T21:12:31.523Z,21.23
2019-01-23T21:14:58.232Z,20.27
2019-01-23T21:17:25.062Z,26.87
2019-01-23T21:19:53.319Z,22.53
2019-01-23T21:22:21.665Z,16.17
2019-01-23T21:24:50.226Z,18.23
2019-01-23T21:27:17.019Z,21.20
2019-01-23T21:29:43.757Z,19.97
2019-01-23T21:32:10.589Z,20.20
2019-01-23T21:34:37.318Z,22.17
2019-01-23T21:37:04.054Z,23.00
2019-01-23T21:39:30.766Z,18.70
2019-01-23T21:41:57.399Z,21.30
2019-01-23T21:44:24.187Z,18.37
2019-01-23T21:46:52.851Z,14.73
2019-01-23T21:49:19.587Z,16.10
2019-01-23T21:54:25.191Z,23.17
2019-01-23T21:56:51.975Z,18.47
2019-01-23T21:59:20.534Z,22.80
2019-01-23T22:01:48.025Z,22.33
2019-01-23T22:04:14.925Z,19.60
2019-01-23T22:06:41.681Z,18.80
2019-01-23T22:09:08.583Z,18.93
2019-01-23T22:11:35.360Z,16.70
2019-01-23T22:14:02.207Z,17.60
2019-01-23T22:16:30.615Z,20.13
2019-01-23T22:18:57.524Z,22.80
2019-01-23T22:21:24.549Z,20.73
2019-01-23T22:23:51.259Z,19.37
2019-01-23T22:26:18.036Z,17.43
2019-01-23T22:28:46.541Z,20.40
2019-01-23T22:31:13.290Z,21.30
2019-01-23T22:33:40.504Z,17.83
2019-01-23T22:36:07.278Z,22.80
2019-01-23T22:38:34.148Z,19.33
2019-01-23T22:41:00.986Z,20.23
2019-01-23T22:43:27.990Z,21.97
2019-01-23T22:45:54.686Z,20.97
2019-01-23T22:48:23.378Z,18.63
2019-01-23T22:50:49.932Z,18.87
2019-01-23T22:53:16.745Z,22.20
2019-01-23T22:55:43.429Z,22.00
2019-01-23T22:58:10.181Z,21.50
2019-01-23T23:00:38.984Z,18.47
2019-01-23T23:03:05.688Z,17.60
2019-01-23T23:05:33.488Z,18.10
2019-01-23T23:08:01.350Z,19.47
2019-01-23T23:10:28.101Z,21.27
2019-01-23T23:12:54.740Z,20.90
2019-01-23T23:15:21.368Z,18.97
2019-01-23T23:17:47.976Z,19.50
2019-01-23T23:20:14.642Z,20.30
2019-01-23T23:22:41.384Z,20.70
2019-01-23T23:25:08.214Z,16.77
2019-01-23T23:27:39.381Z,19.10
2019-01-23T23:30:03.972Z,23.50
2019-01-23T23:32:30.692Z,20.63
2019-01-23T23:34:57.760Z,17.10
2019-01-23T23:37:24.514Z,15.70
2019-01-23T23:39:51.464Z,18.40
2019-01-23T23:42:18.271Z,17.53
2019-01-23T23:44:45.281Z,18.87
2019-01-23T23:47:12.062Z,21.50
2019-01-23T23:49:38.759Z,18.73
2019-01-23T23:52:05.468Z,17.60
2019-01-23T23:54:32.179Z,19.67
2019-01-23T23:56:58.863Z,17.93
2019-01-23T23:59:26.002Z,15.47
